createdAt,value
2022-08-05T00:00:50.307Z,23.07
2022-08-05T00:01:49.644Z,23.01
2022-08-05T00:02:51.743Z,22.99
2022-08-05T00:03:48.537Z,22.94
2022-08-05T00:04:55.114Z,22.93
2022-08-05T00:06:05.260Z,22.90
2022-08-05T00:06:51.735Z,22.87
2022-08-05T00:08:01.018Z,22.86
2022-08-05T00:08:49.458Z,22.84
2022-08-05T00:09:48.480Z,22.86
2022-08-05T00:10:48.448Z,22.86
2022-08-05T00:11:55.337Z,22.83
2022-08-05T00:12:56.417Z,22.78
2022-08-05T00:13:52.964Z,22.75
2022-08-05T00:14:48.406Z,22.75
2022-08-05T00:15:57.879Z,22.78
2022-08-05T00:16:52.784Z,22.80
2022-08-05T00:17:48.370Z,22.83
2022-08-05T00:18:48.353Z,22.84
2022-08-05T00:20:02.225Z,22.87
2022-08-05T00:20:49.352Z,22.90
2022-08-05T00:21:48.334Z,22.92
2022-08-05T00:22:57.484Z,22.92
2022-08-05T00:24:05.060Z,22.92
2022-08-05T00:24:54.826Z,22.93
2022-08-05T00:25:49.280Z,22.94
2022-08-05T00:26:51.909Z,22.93
2022-08-05T00:27:48.259Z,22.94
2022-08-05T00:28:49.259Z,22.96
2022-08-05T00:29:49.183Z,22.96
2022-08-05T00:30:52.068Z,22.97
2022-08-05T00:32:10.618Z,23.01
2022-08-05T00:32:49.192Z,23.01
2022-08-05T00:34:53.353Z,23.04
2022-08-05T00:35:05.230Z,23.04
2022-08-05T00:36:16.440Z,23.05
2022-08-05T00:37:13.280Z,23.07
2022-08-05T00:37:53.172Z,23.05
2022-08-05T00:38:48.133Z,23.04
2022-08-05T00:39:57.994Z,22.97
2022-08-05T00:40:52.004Z,22.92
2022-08-05T00:41:54.989Z,22.90
2022-08-05T00:42:50.028Z,22.87
2022-08-05T00:43:50.020Z,22.86
2022-08-05T00:44:48.082Z,22.84
2022-08-05T00:45:48.054Z,22.84
2022-08-05T00:46:48.053Z,22.84
2022-08-05T00:47:57.337Z,22.82
2022-08-05T00:48:51.420Z,22.80
2022-08-05T00:49:51.743Z,22.80
2022-08-05T00:50:48.035Z,22.75
2022-08-05T00:51:50.914Z,22.75
2022-08-05T00:52:47.976Z,22.72
2022-08-05T00:54:02.843Z,22.72
2022-08-05T00:54:48.946Z,22.74
2022-08-05T00:55:47.978Z,22.74
2022-08-05T00:56:51.642Z,22.74
2022-08-05T00:57:55.451Z,22.74
2022-08-05T00:58:48.899Z,22.69
2022-08-05T00:59:47.917Z,22.68
2022-08-05T01:00:50.212Z,22.67
2022-08-05T01:01:49.003Z,22.67
2022-08-05T01:02:47.873Z,22.65
2022-08-05T01:03:49.997Z,22.68
2022-08-05T01:04:50.470Z,22.71
2022-08-05T01:05:47.852Z,22.72
2022-08-05T01:06:48.818Z,22.77
2022-08-05T01:08:39.976Z,22.77
2022-08-05T01:08:48.795Z,22.78
2022-08-05T01:09:55.579Z,22.80
2022-08-05T01:10:52.278Z,22.80
2022-08-05T01:11:47.765Z,22.80
2022-08-05T01:13:05.096Z,22.80
2022-08-05T01:13:57.373Z,22.80
2022-08-05T01:14:48.752Z,22.80
2022-08-05T01:15:48.070Z,22.82
2022-08-05T01:16:47.720Z,22.82
2022-08-05T01:17:54.004Z,22.77
2022-08-05T01:18:53.789Z,22.77
2022-08-05T01:20:02.088Z,22.72
2022-08-05T01:20:48.680Z,22.72
2022-08-05T01:21:50.687Z,22.71
2022-08-05T01:22:47.649Z,22.69
2022-08-05T01:23:53.109Z,22.68
2022-08-05T01:24:48.631Z,22.68
2022-08-05T01:25:53.434Z,22.64
2022-08-05T01:26:48.602Z,22.62
2022-08-05T01:27:55.190Z,22.62
2022-08-05T01:28:48.571Z,22.62
2022-08-05T01:29:47.600Z,22.60
2022-08-05T01:30:53.805Z,22.56
2022-08-05T01:31:48.555Z,22.56
2022-08-05T01:32:47.554Z,22.54
2022-08-05T01:33:49.277Z,22.53
2022-08-05T01:34:48.555Z,22.54
2022-08-05T01:35:52.107Z,22.56
2022-08-05T01:36:48.490Z,22.57
2022-08-05T01:37:47.486Z,22.60
2022-08-05T01:38:48.438Z,22.62
2022-08-05T01:39:47.866Z,22.62
2022-08-05T01:40:47.452Z,22.57
2022-08-05T01:41:47.446Z,22.52
2022-08-05T01:42:47.427Z,22.47
2022-08-05T01:43:48.898Z,22.43
2022-08-05T01:44:54.092Z,22.38
2022-08-05T01:45:56.166Z,22.39
2022-08-05T01:46:48.379Z,22.38
2022-08-05T01:47:47.833Z,22.37
2022-08-05T01:48:49.766Z,22.38
2022-08-05T01:50:00.546Z,22.39
2022-08-05T01:50:51.315Z,22.38
2022-08-05T01:51:51.726Z,22.34
2022-08-05T01:52:50.170Z,22.34
2022-08-05T01:53:57.036Z,22.32
2022-08-05T01:54:48.285Z,22.31
2022-08-05T01:55:47.282Z,22.34
2022-08-05T01:58:12.153Z,22.35
2022-08-05T01:58:13.193Z,22.34
2022-08-05T01:58:48.502Z,22.32
2022-08-05T01:59:47.403Z,22.29
2022-08-05T02:00:47.221Z,22.29
2022-08-05T02:01:47.233Z,22.28
2022-08-05T02:02:54.325Z,22.27
2022-08-05T02:03:48.209Z,22.23
2022-08-05T02:04:49.509Z,22.25
2022-08-05T02:05:47.169Z,22.25
2022-08-05T02:06:47.147Z,22.27
2022-08-05T02:07:47.294Z,22.28
2022-08-05T02:08:57.847Z,22.28
2022-08-05T02:09:48.125Z,22.28
2022-08-05T02:10:47.137Z,22.27
2022-08-05T02:11:48.072Z,22.25
2022-08-05T02:12:51.020Z,22.23
2022-08-05T02:13:53.062Z,22.23
2022-08-05T02:14:48.071Z,22.22
2022-08-05T02:15:47.080Z,22.23
2022-08-05T02:16:47.042Z,22.23
2022-08-05T02:18:32.691Z,22.27
2022-08-05T02:18:48.015Z,22.27
2022-08-05T02:19:47.782Z,22.23
2022-08-05T02:20:47.089Z,22.25
2022-08-05T02:21:49.226Z,22.25
2022-08-05T02:22:46.979Z,22.20
2022-08-05T02:23:46.965Z,22.20
2022-08-05T02:24:46.965Z,22.19
2022-08-05T02:25:49.365Z,22.16
2022-08-05T02:26:54.030Z,22.12
2022-08-05T02:27:59.049Z,22.09
2022-08-05T02:28:47.928Z,22.04
2022-08-05T02:29:59.434Z,21.98
2022-08-05T02:30:54.349Z,21.94
2022-08-05T02:31:47.883Z,21.92
2022-08-05T02:32:46.859Z,21.90
2022-08-05T02:33:48.434Z,21.83
2022-08-05T02:34:54.909Z,21.78
2022-08-05T02:35:55.841Z,21.71
2022-08-05T02:36:47.819Z,21.61
2022-08-05T02:37:53.797Z,21.51
2022-08-05T02:38:53.469Z,21.41
2022-08-05T02:39:47.859Z,21.32
2022-08-05T02:40:46.792Z,21.26
2022-08-05T02:42:00.822Z,21.20
2022-08-05T02:42:52.719Z,21.16
2022-08-05T02:44:02.532Z,21.09
2022-08-05T02:44:47.744Z,21.08
2022-08-05T02:45:52.484Z,21.05
2022-08-05T02:46:58.672Z,21.02
2022-08-05T02:48:06.480Z,21.02
2022-08-05T02:48:47.685Z,21.04
2022-08-05T02:49:46.704Z,21.05
2022-08-05T02:50:46.657Z,21.02
2022-08-05T02:52:02.658Z,21.04
2022-08-05T02:52:47.656Z,21.01
2022-08-05T02:53:46.635Z,21.04
2022-08-05T02:54:52.037Z,21.02
2022-08-05T02:55:53.939Z,21.04
2022-08-05T02:56:47.598Z,21.04
2022-08-05T02:58:11.266Z,21.05
2022-08-05T02:58:51.421Z,21.02
2022-08-05T02:59:50.578Z,21.06
2022-08-05T03:00:46.551Z,21.08
2022-08-05T03:01:46.596Z,21.11
2022-08-05T03:02:47.530Z,21.09
2022-08-05T03:04:03.277Z,21.01
2022-08-05T03:04:47.510Z,21.01
2022-08-05T03:06:55.331Z,20.86
2022-08-05T03:06:55.753Z,20.90
2022-08-05T03:08:06.911Z,20.80
2022-08-05T03:08:47.468Z,20.71
2022-08-05T03:09:51.619Z,20.58
2022-08-05T03:11:52.999Z,20.49
2022-08-05T03:11:55.202Z,20.43
2022-08-05T03:12:47.413Z,20.43
2022-08-05T03:13:52.047Z,20.49
2022-08-05T03:14:48.190Z,20.53
2022-08-05T03:15:46.396Z,20.59
2022-08-05T03:16:46.371Z,20.68
2022-08-05T03:17:46.359Z,20.74
2022-08-05T03:18:46.424Z,20.81
2022-08-05T03:19:46.347Z,20.86
2022-08-05T03:20:48.609Z,20.91
2022-08-05T03:21:48.829Z,20.93
2022-08-05T03:22:46.898Z,20.89
2022-08-05T03:23:46.314Z,20.87
2022-08-05T03:24:47.056Z,20.87
2022-08-05T03:26:04.298Z,20.84
2022-08-05T03:26:49.399Z,20.84
2022-08-05T03:27:57.986Z,20.87
2022-08-05T03:28:47.252Z,20.91
2022-08-05T03:30:08.083Z,20.96
2022-08-05T03:30:47.242Z,20.99
2022-08-05T03:31:56.508Z,21.01
2022-08-05T03:32:47.212Z,21.04
2022-08-05T03:33:52.920Z,21.01
2022-08-05T03:34:50.496Z,20.98
2022-08-05T03:35:46.166Z,20.96
2022-08-05T03:36:46.160Z,20.96
2022-08-05T03:37:46.918Z,20.93
2022-08-05T03:38:53.320Z,20.86
2022-08-05T03:39:59.379Z,20.76
2022-08-05T03:40:48.579Z,20.62
2022-08-05T03:41:46.846Z,20.59
2022-08-05T03:42:52.607Z,20.58
2022-08-05T03:44:08.597Z,20.54
2022-08-05T03:44:47.067Z,20.56
2022-08-05T03:45:55.308Z,20.58
2022-08-05T03:46:47.059Z,20.59
2022-08-05T03:47:46.057Z,20.64
2022-08-05T03:48:46.770Z,20.69
2022-08-05T03:49:51.316Z,20.69
2022-08-05T03:50:47.006Z,20.64
2022-08-05T03:52:49.325Z,20.58
2022-08-05T03:54:59.295Z,20.53
2022-08-05T03:55:50.895Z,20.54
2022-08-05T03:55:52.580Z,20.58
2022-08-05T03:56:09.585Z,20.59
2022-08-05T03:56:46.932Z,20.62
2022-08-05T03:57:46.319Z,20.65
2022-08-05T03:58:45.917Z,20.66
2022-08-05T03:59:47.215Z,20.68
2022-08-05T04:00:51.564Z,20.71
2022-08-05T04:01:46.913Z,20.72
2022-08-05T04:02:51.981Z,20.72
2022-08-05T04:04:09.683Z,20.72
2022-08-05T04:04:46.846Z,20.72
2022-08-05T04:05:45.847Z,20.74
2022-08-05T04:06:47.880Z,20.71
2022-08-05T04:07:58.378Z,20.72
2022-08-05T04:08:48.583Z,20.72
2022-08-05T04:09:53.809Z,20.72
2022-08-05T04:10:46.781Z,20.76
2022-08-05T04:11:50.939Z,20.76
2022-08-05T04:12:47.781Z,20.77
2022-08-05T04:13:50.948Z,20.79
2022-08-05T04:14:46.743Z,20.80
2022-08-05T04:16:03.046Z,20.80
2022-08-05T04:16:46.701Z,20.81
2022-08-05T04:17:57.361Z,20.81
2022-08-05T04:18:47.577Z,20.80
2022-08-05T04:19:46.713Z,20.76
2022-08-05T04:20:46.670Z,20.77
2022-08-05T04:22:10.006Z,20.76
2022-08-05T04:22:46.634Z,20.76
2022-08-05T04:24:05.874Z,20.76
2022-08-05T04:24:52.419Z,20.74
2022-08-05T04:26:00.406Z,20.72
2022-08-05T04:26:46.716Z,20.71
2022-08-05T04:27:57.490Z,20.71
2022-08-05T04:28:51.142Z,20.71
2022-08-05T04:29:46.575Z,20.71
2022-08-05T04:30:45.557Z,20.72
2022-08-05T04:31:46.287Z,20.72
2022-08-05T04:32:45.522Z,20.72
2022-08-05T04:34:19.158Z,20.76
2022-08-05T04:34:46.501Z,20.79
2022-08-05T04:36:15.648Z,20.79
2022-08-05T04:36:50.014Z,20.81
2022-08-05T04:38:02.783Z,20.83
2022-08-05T04:38:46.451Z,20.86
2022-08-05T04:39:45.505Z,20.89
2022-08-05T04:40:50.743Z,20.91
2022-08-05T04:41:45.643Z,20.91
2022-08-05T04:42:45.419Z,20.93
2022-08-05T04:43:47.250Z,20.87
2022-08-05T04:44:46.386Z,20.87
2022-08-05T04:45:48.855Z,20.87
2022-08-05T04:46:46.902Z,20.89
2022-08-05T04:47:47.287Z,20.89
2022-08-05T04:48:45.350Z,20.91
2022-08-05T04:50:01.862Z,20.91
2022-08-05T04:51:02.753Z,20.90
2022-08-05T04:51:46.317Z,20.90
2022-08-05T04:52:45.299Z,20.90
2022-08-05T04:53:45.289Z,20.91
2022-08-05T04:54:45.276Z,20.91
2022-08-05T04:56:14.625Z,20.91
2022-08-05T04:56:46.248Z,20.90
2022-08-05T04:57:47.932Z,20.89
2022-08-05T04:58:46.238Z,20.89
2022-08-05T04:59:45.257Z,20.87
2022-08-05T05:00:45.221Z,20.86
2022-08-05T05:02:35.211Z,20.84
2022-08-05T05:02:46.222Z,20.86
2022-08-05T05:03:45.184Z,20.81
2022-08-05T05:04:48.048Z,20.77
2022-08-05T05:06:35.868Z,20.72
2022-08-05T05:06:49.355Z,20.68
2022-08-05T05:07:52.876Z,20.66
2022-08-05T05:08:46.120Z,20.65
2022-08-05T05:09:45.118Z,20.64
2022-08-05T05:10:47.303Z,20.65
2022-08-05T05:11:54.533Z,20.64
2022-08-05T05:12:46.073Z,20.64
2022-08-05T05:13:45.063Z,20.64
2022-08-05T05:14:50.789Z,20.65
2022-08-05T05:15:59.437Z,20.64
2022-08-05T05:16:46.044Z,20.65
2022-08-05T05:17:57.114Z,20.66
2022-08-05T05:19:08.892Z,20.68
2022-08-05T05:19:47.542Z,20.69
2022-08-05T05:20:46.072Z,20.71
2022-08-05T05:21:44.976Z,20.74
2022-08-05T05:22:44.977Z,20.76
2022-08-05T05:24:03.808Z,20.76
2022-08-05T05:24:58.120Z,20.79
2022-08-05T05:25:45.942Z,20.79
2022-08-05T05:26:46.493Z,20.79
2022-08-05T05:27:48.579Z,20.81
2022-08-05T05:28:45.344Z,20.79
2022-08-05T05:30:03.347Z,20.80
2022-08-05T05:30:49.577Z,20.77
2022-08-05T05:31:46.390Z,20.71
2022-08-05T05:32:44.853Z,20.69
2022-08-05T05:33:59.512Z,20.71
2022-08-05T05:34:45.837Z,20.74
2022-08-05T05:35:44.818Z,20.77
2022-08-05T05:36:47.059Z,20.76
2022-08-05T05:37:59.637Z,20.77
2022-08-05T05:38:45.784Z,20.76
2022-08-05T05:39:45.821Z,20.74
2022-08-05T05:40:49.715Z,20.76
2022-08-05T05:41:45.749Z,20.69
2022-08-05T05:42:47.121Z,20.69
2022-08-05T05:43:57.435Z,20.71
2022-08-05T05:44:46.085Z,20.72
2022-08-05T05:45:48.374Z,20.68
2022-08-05T05:46:44.708Z,20.66
2022-08-05T05:48:05.333Z,20.66
2022-08-05T05:48:45.938Z,20.68
2022-08-05T05:49:45.628Z,20.66
2022-08-05T05:50:45.709Z,20.64
2022-08-05T05:51:50.697Z,20.66
2022-08-05T05:52:46.494Z,20.71
2022-08-05T05:53:54.184Z,20.66
2022-08-05T05:54:50.938Z,20.61
2022-08-05T05:55:51.673Z,20.58
2022-08-05T05:56:45.599Z,20.65
2022-08-05T05:57:52.144Z,20.68
2022-08-05T05:58:45.558Z,20.74
2022-08-05T05:59:44.567Z,20.76
2022-08-05T06:00:45.879Z,20.79
2022-08-05T06:01:57.506Z,20.79
2022-08-05T06:02:46.469Z,20.77
2022-08-05T06:04:01.138Z,20.77
2022-08-05T06:04:49.184Z,20.79
2022-08-05T06:05:44.479Z,20.79
2022-08-05T06:06:46.728Z,20.80
2022-08-05T06:07:57.789Z,20.79
2022-08-05T06:08:49.129Z,20.76
2022-08-05T06:10:00.546Z,20.69
2022-08-05T06:10:52.520Z,20.64
2022-08-05T06:12:00.034Z,20.59
2022-08-05T06:12:46.348Z,20.54
2022-08-05T06:13:50.499Z,20.53
2022-08-05T06:14:45.380Z,20.50
2022-08-05T06:16:30.334Z,20.43
2022-08-05T06:16:45.351Z,20.39
2022-08-05T06:17:52.854Z,20.38
2022-08-05T06:18:45.340Z,20.39
2022-08-05T06:19:44.344Z,20.39
2022-08-05T06:20:47.884Z,20.39
2022-08-05T06:21:49.920Z,20.41
2022-08-05T06:22:45.304Z,20.42
2022-08-05T06:23:44.471Z,20.43
2022-08-05T06:24:48.223Z,20.46
2022-08-05T06:26:12.388Z,20.50
2022-08-05T06:26:51.201Z,20.54
2022-08-05T06:28:12.676Z,20.58
2022-08-05T06:28:45.234Z,20.64
2022-08-05T06:29:49.372Z,20.68
2022-08-05T06:30:45.198Z,20.71
2022-08-05T06:31:44.193Z,20.74
2022-08-05T06:32:44.170Z,20.79
2022-08-05T06:34:06.743Z,20.83
2022-08-05T06:34:45.158Z,20.86
2022-08-05T06:36:05.745Z,20.89
2022-08-05T06:36:57.866Z,20.91
2022-08-05T06:37:58.113Z,20.93
2022-08-05T06:38:47.078Z,20.96
2022-08-05T06:39:44.207Z,20.99
2022-08-05T06:40:44.519Z,21.01
2022-08-05T06:41:44.072Z,21.02
2022-08-05T06:42:44.069Z,21.04
2022-08-05T06:43:51.716Z,21.02
2022-08-05T06:44:45.128Z,21.04
2022-08-05T06:46:07.277Z,21.05
2022-08-05T06:46:45.048Z,21.01
2022-08-05T06:48:35.939Z,21.02
2022-08-05T06:48:58.678Z,21.04
2022-08-05T06:50:00.251Z,21.06
2022-08-05T06:50:44.973Z,21.06
2022-08-05T06:51:44.970Z,21.11
2022-08-05T06:52:43.953Z,21.14
2022-08-05T06:53:44.959Z,21.19
2022-08-05T06:54:44.935Z,21.23
2022-08-05T06:55:44.930Z,21.23
2022-08-05T06:56:54.663Z,21.27
2022-08-05T06:57:58.199Z,21.27
2022-08-05T06:58:44.885Z,21.32
2022-08-05T06:59:48.480Z,21.34
2022-08-05T07:00:44.936Z,21.36
2022-08-05T07:01:43.883Z,21.42
2022-08-05T07:02:43.845Z,21.46
2022-08-05T07:03:43.862Z,21.53
2022-08-05T07:04:43.838Z,21.56
2022-08-05T07:05:43.835Z,21.60
2022-08-05T07:06:43.793Z,21.63
2022-08-05T07:07:44.226Z,21.63
2022-08-05T07:08:48.029Z,21.64
2022-08-05T07:09:45.753Z,21.61
2022-08-05T07:10:53.427Z,21.64
2022-08-05T07:11:49.550Z,21.63
2022-08-05T07:12:49.109Z,21.63
2022-08-05T07:13:58.779Z,21.64
2022-08-05T07:14:44.733Z,21.64
2022-08-05T07:16:01.184Z,21.63
2022-08-05T07:18:02.350Z,21.64
2022-08-05T07:18:08.903Z,21.69
2022-08-05T07:18:47.779Z,21.74
2022-08-05T07:20:44.636Z,21.88
2022-08-05T07:22:00.038Z,21.94
2022-08-05T07:22:45.840Z,21.99
2022-08-05T07:23:50.049Z,22.09
2022-08-05T07:24:52.650Z,22.17
2022-08-05T07:25:54.955Z,22.29
2022-08-05T07:26:44.578Z,22.46
2022-08-05T07:27:58.151Z,22.53
2022-08-05T07:28:44.563Z,22.62
2022-08-05T07:30:23.805Z,22.67
2022-08-05T07:30:44.561Z,22.64
2022-08-05T07:31:54.529Z,22.60
2022-08-05T07:32:44.493Z,22.56
2022-08-05T07:33:44.519Z,22.52
2022-08-05T07:34:43.507Z,22.39
2022-08-05T07:36:03.086Z,22.32
2022-08-05T07:36:44.455Z,22.29
2022-08-05T07:37:43.452Z,22.27
2022-08-05T07:38:44.224Z,22.32
2022-08-05T07:40:27.007Z,22.31
2022-08-05T07:40:44.760Z,22.31
2022-08-05T07:42:12.864Z,22.34
2022-08-05T07:42:44.415Z,22.35
2022-08-05T07:43:43.391Z,22.38
2022-08-05T07:44:43.382Z,22.41
2022-08-05T07:45:57.518Z,22.46
2022-08-05T07:46:48.625Z,22.52
2022-08-05T07:47:44.328Z,22.57
2022-08-05T07:49:02.627Z,22.68
2022-08-05T07:49:54.481Z,22.84
2022-08-05T07:50:44.316Z,22.97
2022-08-05T07:51:53.581Z,23.02
2022-08-05T07:52:44.338Z,23.02
2022-08-05T07:53:50.514Z,23.02
2022-08-05T07:54:49.077Z,23.01
2022-08-05T07:56:05.408Z,22.99
2022-08-05T07:57:01.345Z,23.02
2022-08-05T07:57:55.240Z,23.07
2022-08-05T07:58:57.649Z,23.08
2022-08-05T07:59:44.211Z,23.12
2022-08-05T08:00:43.229Z,23.12
2022-08-05T08:01:52.009Z,23.09
2022-08-05T08:03:14.208Z,23.11
2022-08-05T08:03:45.082Z,23.17
2022-08-05T08:04:43.159Z,23.26
2022-08-05T08:05:47.551Z,23.32
2022-08-05T08:06:44.137Z,23.38
2022-08-05T08:07:58.991Z,23.38
2022-08-05T08:08:44.113Z,23.45
2022-08-05T08:09:43.089Z,23.60
2022-08-05T08:10:43.100Z,23.68
2022-08-05T08:11:47.853Z,23.76
2022-08-05T08:12:49.314Z,23.85
2022-08-05T08:13:49.351Z,23.94
2022-08-05T08:14:46.684Z,24.00
2022-08-05T08:16:34.948Z,23.97
2022-08-05T08:16:51.007Z,23.94
2022-08-05T08:17:49.884Z,23.82
2022-08-05T08:18:49.982Z,23.77
2022-08-05T08:20:43.307Z,23.82
2022-08-05T08:21:01.937Z,23.82
2022-08-05T08:21:43.944Z,23.82
2022-08-05T08:22:42.995Z,23.85
2022-08-05T08:24:02.310Z,23.87
2022-08-05T08:24:51.429Z,23.95
2022-08-05T08:26:00.196Z,24.00
2022-08-05T08:26:43.887Z,24.07
2022-08-05T08:27:47.956Z,24.14
2022-08-05T08:28:55.221Z,24.22
2022-08-05T08:30:04.033Z,24.27
2022-08-05T08:30:47.718Z,24.31
2022-08-05T08:31:42.834Z,24.35
2022-08-05T08:32:42.828Z,24.44
2022-08-05T08:33:42.824Z,24.54
2022-08-05T08:34:42.799Z,24.54
2022-08-05T08:35:53.984Z,24.50
2022-08-05T08:36:47.718Z,24.50
2022-08-05T08:37:45.199Z,24.49
2022-08-05T08:38:43.760Z,24.49
2022-08-05T08:39:49.313Z,24.47
2022-08-05T08:40:50.489Z,24.47
2022-08-05T08:41:50.623Z,24.47
2022-08-05T08:42:46.754Z,24.47
2022-08-05T08:45:23.383Z,24.45
2022-08-05T08:45:23.704Z,24.42
2022-08-05T08:45:43.675Z,24.37
2022-08-05T08:46:42.680Z,24.35
2022-08-05T08:48:07.648Z,24.37
2022-08-05T08:49:07.750Z,24.37
2022-08-05T08:50:06.224Z,24.41
2022-08-05T08:51:22.004Z,24.47
2022-08-05T08:52:06.115Z,24.60
2022-08-05T08:52:43.628Z,24.69
2022-08-05T08:53:45.176Z,24.63
2022-08-05T08:54:42.577Z,24.63
2022-08-05T08:56:03.653Z,24.61
2022-08-05T08:56:47.866Z,24.64
2022-08-05T08:57:57.927Z,24.69
2022-08-05T08:58:47.606Z,24.79
2022-08-05T08:59:47.025Z,24.88
2022-08-05T09:00:42.667Z,24.91
2022-08-05T09:01:42.774Z,24.95
2022-08-05T09:02:42.500Z,24.97
2022-08-05T09:03:45.150Z,24.98
2022-08-05T09:04:58.604Z,24.98
2022-08-05T09:06:08.840Z,24.98
2022-08-05T09:06:43.450Z,24.90
2022-08-05T09:07:57.769Z,24.87
2022-08-05T09:08:43.467Z,24.83
2022-08-05T09:09:42.414Z,24.79
2022-08-05T09:10:42.504Z,24.76
2022-08-05T09:11:51.783Z,24.75
2022-08-05T09:12:43.381Z,24.73
2022-08-05T09:14:09.916Z,24.75
2022-08-05T09:14:56.487Z,24.76
2022-08-05T09:15:43.344Z,24.80
2022-08-05T09:16:42.339Z,24.85
2022-08-05T09:17:49.344Z,25.00
2022-08-05T09:18:43.379Z,25.16
2022-08-05T09:20:01.342Z,25.19
2022-08-05T09:20:43.330Z,25.32
2022-08-05T09:22:21.852Z,25.39
2022-08-05T09:22:43.273Z,25.54
2022-08-05T09:23:43.669Z,25.62
2022-08-05T09:24:42.312Z,25.67
2022-08-05T09:26:03.326Z,25.71
2022-08-05T09:26:43.693Z,25.84
2022-08-05T09:28:05.293Z,25.89
2022-08-05T09:28:43.225Z,25.90
2022-08-05T09:29:47.701Z,25.93
2022-08-05T09:30:43.185Z,25.90
2022-08-05T09:32:40.268Z,25.84
2022-08-05T09:32:46.770Z,25.84
2022-08-05T09:33:42.174Z,25.77
2022-08-05T09:34:42.143Z,25.72
2022-08-05T09:35:43.291Z,25.67
2022-08-05T09:36:45.927Z,25.57
2022-08-05T09:38:12.539Z,25.50
2022-08-05T09:38:43.254Z,25.46
2022-08-05T09:39:46.910Z,25.38
2022-08-05T09:40:51.848Z,25.35
2022-08-05T09:41:43.420Z,25.28
2022-08-05T09:42:43.055Z,25.17
2022-08-05T09:43:43.574Z,25.09
2022-08-05T09:44:43.053Z,25.05
2022-08-05T09:46:06.996Z,24.97
2022-08-05T09:46:53.617Z,24.92
2022-08-05T09:47:55.215Z,24.91
2022-08-05T09:48:43.005Z,24.90
2022-08-05T09:50:01.408Z,24.91
2022-08-05T09:50:44.777Z,24.88
2022-08-05T09:51:41.985Z,24.87
2022-08-05T09:52:45.063Z,24.88
2022-08-05T09:53:54.993Z,24.87
2022-08-05T09:54:42.936Z,24.87
2022-08-05T09:55:57.088Z,24.88
2022-08-05T09:56:51.465Z,24.82
2022-08-05T09:57:43.340Z,24.79
2022-08-05T09:58:42.371Z,24.76
2022-08-05T09:59:41.873Z,24.69
2022-08-05T10:00:41.870Z,24.64
2022-08-05T10:01:41.832Z,24.63
2022-08-05T10:02:41.918Z,24.67
2022-08-05T10:03:58.641Z,24.76
2022-08-05T10:04:42.915Z,24.79
2022-08-05T10:05:41.781Z,24.79
2022-08-05T10:06:54.650Z,24.77
2022-08-05T10:08:10.941Z,24.76
2022-08-05T10:08:42.811Z,24.79
2022-08-05T10:09:44.832Z,24.82
2022-08-05T10:10:41.779Z,24.88
2022-08-05T10:11:41.737Z,25.01
2022-08-05T10:12:49.241Z,25.07
2022-08-05T10:13:47.132Z,25.09
2022-08-05T10:14:42.697Z,25.12
2022-08-05T10:15:41.677Z,25.16
2022-08-05T10:16:52.342Z,25.15
2022-08-05T10:17:47.146Z,25.13
2022-08-05T10:18:42.676Z,25.09
2022-08-05T10:20:04.208Z,25.02
2022-08-05T10:20:42.698Z,24.98
2022-08-05T10:21:41.613Z,24.98
2022-08-05T10:22:48.570Z,25.07
2022-08-05T10:23:55.541Z,25.22
2022-08-05T10:24:42.613Z,25.37
2022-08-05T10:25:41.596Z,25.32
2022-08-05T10:26:49.136Z,25.25
2022-08-05T10:28:13.422Z,25.20
2022-08-05T10:28:42.562Z,25.19
2022-08-05T10:30:07.071Z,25.15
2022-08-05T10:32:47.233Z,25.12
2022-08-05T10:32:51.959Z,25.06
2022-08-05T10:32:54.989Z,25.09
2022-08-05T10:33:42.480Z,25.12
2022-08-05T10:34:41.497Z,25.05
2022-08-05T10:35:44.185Z,25.05
2022-08-05T10:36:41.497Z,25.02
2022-08-05T10:37:45.037Z,24.98
2022-08-05T10:38:44.981Z,24.94
2022-08-05T10:40:03.401Z,24.90
2022-08-05T10:40:43.464Z,24.77
2022-08-05T10:41:44.885Z,24.60
2022-08-05T10:42:43.777Z,24.47
2022-08-05T10:43:41.477Z,24.27
2022-08-05T10:44:42.015Z,24.08
2022-08-05T10:45:41.954Z,23.92
2022-08-05T10:46:41.353Z,23.77
2022-08-05T10:47:41.352Z,23.70
2022-08-05T10:48:56.813Z,23.62
2022-08-05T10:49:48.670Z,23.49
2022-08-05T10:50:42.293Z,23.39
2022-08-05T10:51:57.510Z,23.31
2022-08-05T10:52:49.499Z,23.22
2022-08-05T10:53:42.617Z,23.22
2022-08-05T10:54:47.211Z,23.07
2022-08-05T10:56:05.223Z,23.02
2022-08-05T10:56:42.244Z,22.99
2022-08-05T10:57:41.218Z,22.90
2022-08-05T10:58:48.811Z,22.84
2022-08-05T11:00:04.283Z,22.78
2022-08-05T11:00:44.104Z,22.69
2022-08-05T11:01:55.683Z,22.71
2022-08-05T11:02:43.736Z,22.64
2022-08-05T11:03:42.903Z,22.56
2022-08-05T11:04:41.322Z,22.57
2022-08-05T11:05:41.142Z,22.57
2022-08-05T11:06:41.138Z,22.46
2022-08-05T11:08:02.927Z,22.46
2022-08-05T11:08:42.141Z,22.49
2022-08-05T11:09:46.141Z,22.44
2022-08-05T11:10:50.232Z,22.43
2022-08-05T11:11:51.980Z,22.44
2022-08-05T11:12:42.065Z,22.29
2022-08-05T11:13:57.884Z,22.22
2022-08-05T11:15:11.722Z,22.28
2022-08-05T11:16:00.346Z,22.31
2022-08-05T11:16:56.103Z,22.39
2022-08-05T11:17:59.891Z,22.46
2022-08-05T11:18:46.951Z,22.49
2022-08-05T11:20:16.961Z,22.50
2022-08-05T11:20:44.343Z,22.49
2022-08-05T11:21:49.462Z,22.47
2022-08-05T11:22:42.190Z,22.46
2022-08-05T11:24:03.996Z,22.34
2022-08-05T11:24:41.912Z,22.22
2022-08-05T11:26:06.279Z,22.17
2022-08-05T11:26:43.234Z,22.14
2022-08-05T11:27:51.191Z,22.04
2022-08-05T11:28:42.200Z,21.95
2022-08-05T11:29:40.859Z,21.85
2022-08-05T11:30:40.840Z,21.78
2022-08-05T11:31:58.375Z,21.69
2022-08-05T11:32:41.830Z,21.66
2022-08-05T11:33:47.951Z,21.53
2022-08-05T11:34:51.502Z,21.41
2022-08-05T11:36:07.680Z,21.34
2022-08-05T11:36:42.802Z,21.32
2022-08-05T11:38:28.889Z,21.30
2022-08-05T11:38:45.983Z,21.34
2022-08-05T11:39:41.810Z,21.34
2022-08-05T11:40:41.745Z,21.21
2022-08-05T11:42:01.495Z,21.13
2022-08-05T11:42:41.745Z,21.05
2022-08-05T11:44:04.575Z,21.02
2022-08-05T11:44:54.118Z,21.04
2022-08-05T11:46:27.075Z,20.93
2022-08-05T11:47:09.982Z,20.93
2022-08-05T11:47:48.517Z,20.95
2022-08-05T11:48:41.668Z,20.95
2022-08-05T11:49:42.854Z,20.87
2022-08-05T11:50:40.625Z,20.64
2022-08-05T11:51:44.596Z,20.56
2022-08-05T11:52:41.613Z,20.61
2022-08-05T11:53:41.996Z,20.53
2022-08-05T11:54:41.829Z,20.49
2022-08-05T11:55:40.564Z,20.46
2022-08-05T11:56:41.335Z,20.46
2022-08-05T11:58:09.840Z,20.39
2022-08-05T11:58:41.566Z,20.35
2022-08-05T11:59:50.045Z,20.24
2022-08-05T12:00:44.237Z,20.03
2022-08-05T12:01:41.502Z,19.98
2022-08-05T12:02:40.541Z,20.03
2022-08-05T12:03:40.773Z,20.08
2022-08-05T12:04:41.451Z,20.09
2022-08-05T12:05:43.654Z,20.05
2022-08-05T12:06:40.453Z,20.06
2022-08-05T12:08:03.732Z,20.00
2022-08-05T12:08:50.633Z,19.98
2022-08-05T12:09:53.546Z,19.95
2022-08-05T12:10:45.041Z,19.93
2022-08-05T12:11:41.695Z,19.84
2022-08-05T12:12:46.619Z,19.73
2022-08-05T12:13:48.762Z,19.68
2022-08-05T12:14:43.297Z,19.57
2022-08-05T12:15:41.365Z,19.60
2022-08-05T12:16:40.350Z,19.66
2022-08-05T12:18:03.986Z,19.73
2022-08-05T12:18:41.371Z,19.79
2022-08-05T12:20:27.890Z,19.88
2022-08-05T12:20:41.493Z,19.95
2022-08-05T12:21:40.280Z,19.95
2022-08-05T12:22:41.221Z,19.91
2022-08-05T12:23:42.876Z,19.83
2022-08-05T12:24:40.262Z,19.73
2022-08-05T12:25:40.264Z,19.58
2022-08-05T12:26:43.880Z,19.57
2022-08-05T12:27:52.943Z,19.58
2022-08-05T12:28:41.240Z,19.55
2022-08-05T12:29:41.188Z,19.55
2022-08-05T12:30:45.926Z,19.55
2022-08-05T12:31:49.766Z,19.48
2022-08-05T12:32:41.147Z,19.47
2022-08-05T12:33:40.145Z,19.32
2022-08-05T12:34:40.135Z,19.25
2022-08-05T12:35:40.178Z,19.32
2022-08-05T12:36:40.181Z,19.31
2022-08-05T12:37:40.099Z,19.28
2022-08-05T12:38:41.374Z,19.31
2022-08-05T12:39:40.148Z,19.36
2022-08-05T12:40:40.061Z,19.43
2022-08-05T12:41:43.963Z,19.46
2022-08-05T12:42:40.037Z,19.53
2022-08-05T12:43:40.031Z,19.58
2022-08-05T12:44:40.807Z,19.65
2022-08-05T12:45:48.402Z,19.58
2022-08-05T12:46:41.027Z,19.57
2022-08-05T12:47:43.549Z,19.58
2022-08-05T12:48:40.971Z,19.63
2022-08-05T12:50:03.507Z,19.65
2022-08-05T12:50:40.965Z,19.63
2022-08-05T12:52:13.586Z,19.66
2022-08-05T12:52:42.518Z,19.69
2022-08-05T12:53:39.909Z,19.65